Temp Hi Low Out Dew Wind Wind Wind Hi Hi Wind Heat THW THSW Rain Solar Solar Hi Solar UV UV Hi Heat Cool In In In In In In Air Wind Wind ISS Arc.
Date Time Out Temp Temp Hum Pt. Speed Dir Run Speed Dir Chill Index Index Index Bar Rain Rate Rad. Energy Rad. Index Dose UV D-D D-D Temp Hum Dew Heat EMC Density ET Samp Tx Recept Int.
------------------------------------------------------------------------------------------------------------------------------------------------------------------------------------------------------------------------------------------------------------------------
5/05/26 12:10a 53.9 54.0 53.9 95 52.5 8.0 S 1.33 14.0 S 51.2 54.1 51.4 48.8 29.978 0.00 0.00 0 0.00 0 0.0 0.00 0.0 0.077 0.000 72.8 50 53.1 72.2 9.25 .0737 0.000 202 7 100.0 10
5/05/26 12:20a 54.0 54.0 53.9 95 52.6 8.0 S 1.33 14.0 SSE 51.3 54.2 51.5 48.9 29.978 0.00 0.00 0 0.00 0 0.0 0.00 0.0 0.076 0.000 72.8 50 53.1 72.2 9.25 .0737 0.000 204 7 100.0 10
5/05/26 12:30a 54.1 54.1 54.0 96 53.0 7.0 S 1.17 11.0 SSE 52.1 54.3 52.3 49.6 29.980 0.00 0.00 0 0.00 0 0.0 0.00 0.0 0.076 0.000 72.7 50 53.0 72.1 9.25 .0737 0.000 200 7 100.0 10
5/05/26 12:40a 53.7 54.1 53.7 95 52.3 6.0 S 1.00 11.0 S 52.0 53.9 52.2 49.5 29.978 0.00 0.00 0 0.00 0 0.0 0.00 0.0 0.078 0.000 72.7 50 53.0 72.1 9.25 .0737 0.000 202 7 100.0 10
5/05/26 12:50a 54.1 54.1 53.7 95 52.7 6.0 S 1.00 13.0 SSE 52.5 54.3 52.7 50.0 29.980 0.00 0.00 0 0.00 0 0.0 0.00 0.0 0.076 0.000 72.6 50 52.9 71.9 9.25 .0737 0.000 203 7 100.0 10
5/05/26 1:00a 54.2 54.2 54.0 95 52.8 5.0 S 0.83 13.0 S 53.1 54.4 53.3 50.6 29.977 0.00 0.00 0 0.00 0 0.0 0.00 0.0 0.075 0.000 72.6 50 52.9 71.9 9.25 .0737 0.000 204 7 100.0 10
5/05/26 1:10a 54.4 54.4 54.2 94 52.7 7.0 S 1.17 13.0 S 52.5 54.6 52.7 50.0 29.974 0.00 0.00 0 0.00 0 0.0 0.00 0.0 0.074 0.000 72.6 50 52.9 71.9 9.25 .0737 0.000 200 7 100.0 10
5/05/26 1:20a 54.4 54.5 54.3 94 52.7 6.0 S 1.00 10.0 SSE 52.9 54.6 53.1 50.4 29.975 0.00 0.00 0 0.00 0 0.0 0.00 0.0 0.074 0.000 72.5 50 52.8 71.8 9.25 .0737 0.000 203 7 100.0 10
5/05/26 1:30a 54.4 54.5 54.4 94 52.7 6.0 S 1.00 10.0 SSE 52.9 54.6 53.1 50.4 29.975 0.00 0.00 0 0.00 0 0.0 0.00 0.0 0.074 0.000 72.5 50 52.8 71.8 9.25 .0737 0.000 203 7 100.0 10
5/05/26 1:40a 54.5 54.5 54.4 94 52.8 6.0 S 1.00 12.0 S 53.0 54.7 53.2 50.5 29.975 0.00 0.00 0 0.00 0 0.0 0.00 0.0 0.073 0.000 72.5 50 52.8 71.8 9.25 .0737 0.000 200 7 100.0 10
5/05/26 1:50a 54.5 54.6 54.4 93 52.5 7.0 S 1.17 14.0 S 52.6 54.7 52.8 50.1 29.972 0.00 0.00 0 0.00 0 0.0 0.00 0.0 0.073 0.000 72.4 50 52.7 71.7 9.25 .0737 0.000 201 7 100.0 10
5/05/26 2:00a 54.5 54.6 54.5 93 52.5 5.0 S 0.83 10.0 SSE 53.5 54.7 53.7 51.0 29.973 0.00 0.00 0 0.00 0 0.0 0.00 0.0 0.073 0.000 72.4 50 52.7 71.7 9.25 .0737 0.000 200 7 100.0 10
5/05/26 2:10a 54.6 54.6 54.4 93 52.6 4.0 S 0.67 11.0 SSE 54.2 54.8 54.4 51.7 29.974 0.00 0.00 0 0.00 0 0.0 0.00 0.0 0.072 0.000 72.4 50 52.7 71.7 9.25 .0737 0.000 204 7 100.0 10
5/05/26 2:20a 54.7 54.7 54.6 93 52.7 4.0 S 0.67 9.0 S 54.3 54.9 54.5 51.8 29.980 0.00 0.00 0 0.00 0 0.0 0.00 0.0 0.072 0.000 72.3 50 52.6 71.5 9.25 .0738 0.000 203 7 100.0 10
5/05/26 2:30a 54.5 54.8 54.5 93 52.5 8.0 S 1.33 13.0 S 51.9 54.7 52.1 49.5 29.978 0.00 0.00 0 0.00 0 0.0 0.00 0.0 0.073 0.000 72.3 50 52.6 71.5 9.25 .0737 0.000 202 7 100.0 10
5/05/26 2:40a 54.3 54.5 54.3 94 52.6 7.0 S 1.17 11.0 S 52.4 54.5 52.6 49.9 29.980 0.00 0.00 0 0.00 0 0.0 0.00 0.0 0.074 0.000 72.3 50 52.6 71.5 9.25 .0738 0.000 202 7 100.0 10
5/05/26 2:50a 54.1 54.3 54.1 94 52.4 5.0 S 0.83 8.0 S 53.0 54.3 53.2 50.5 29.984 0.00 0.00 0 0.00 0 0.0 0.00 0.0 0.076 0.000 72.2 50 52.5 71.4 9.25 .0738 0.000 203 7 100.0 10
5/05/26 3:00a 54.2 54.2 54.1 95 52.8 5.0 S 0.83 7.0 SSW 53.1 54.4 53.3 50.6 29.984 0.00 0.00 0 0.00 0 0.0 0.00 0.0 0.075 0.000 72.2 50 52.5 71.4 9.25 .0738 0.000 202 7 100.0 10
5/05/26 3:10a 54.0 54.2 54.0 95 52.6 5.0 S 0.83 8.0 S 52.9 54.2 53.1 50.4 29.982 0.00 0.00 0 0.00 0 0.0 0.00 0.0 0.076 0.000 72.2 50 52.5 71.4 9.25 .0738 0.000 202 7 100.0 10
5/05/26 3:20a 54.1 54.1 53.9 95 52.7 6.0 S 1.00 9.0 S 52.5 54.3 52.7 50.0 29.983 0.00 0.00 0 0.00 0 0.0 0.00 0.0 0.076 0.000 72.2 50 52.5 71.4 9.25 .0738 0.000 203 7 100.0 10
5/05/26 3:30a 54.1 54.1 54.0 95 52.7 5.0 S 0.83 7.0 S 53.0 54.3 53.2 50.5 29.987 0.00 0.00 0 0.00 0 0.0 0.00 0.0 0.076 0.000 72.1 50 52.4 71.2 9.25 .0738 0.000 201 7 100.0 10
5/05/26 3:40a 54.0 54.1 54.0 95 52.6 6.0 S 1.00 8.0 SE 52.4 54.2 52.6 49.9 29.986 0.00 0.00 0 0.00 0 0.0 0.00 0.0 0.076 0.000 72.1 50 52.4 71.2 9.25 .0738 0.000 203 7 100.0 10
5/05/26 3:50a 54.0 54.0 53.9 95 52.6 5.0 S 0.83 8.0 SSE 52.9 54.2 53.1 50.4 29.989 0.00 0.00 0 0.00 0 0.0 0.00 0.0 0.076 0.000 72.0 50 52.3 71.1 9.25 .0738 0.000 203 7 100.0 10
5/05/26 4:00a 54.0 54.1 54.0 96 52.9 5.0 S 0.83 7.0 SSW 52.9 54.2 53.1 50.4 29.990 0.00 0.00 0 0.00 0 0.0 0.00 0.0 0.076 0.000 72.0 50 52.3 71.1 9.25 .0738 0.000 203 7 100.0 10
5/05/26 4:10a 54.0 54.1 54.0 96 52.9 4.0 S 0.67 8.0 SSE 53.5 54.2 53.7 51.0 29.988 0.00 0.00 0 0.00 0 0.0 0.00 0.0 0.076 0.000 72.0 50 52.3 71.1 9.25 .0738 0.000 204 7 100.0 10
5/05/26 4:20a 53.9 54.0 53.9 96 52.8 4.0 S 0.67 7.0 SE 53.4 54.1 53.6 50.9 29.991 0.00 0.00 0 0.00 0 0.0 0.00 0.0 0.077 0.000 71.9 50 52.2 70.9 9.25 .0738 0.000 203 7 100.0 10
5/05/26 4:30a 53.8 53.9 53.7 96 52.7 5.0 S 0.83 8.0 S 52.7 54.1 53.0 50.3 29.988 0.00 0.00 0 0.00 0 0.0 0.00 0.0 0.078 0.000 71.9 50 52.2 70.9 9.25 .0738 0.000 201 7 100.0 10
5/05/26 4:40a 53.9 54.0 53.8 96 52.8 5.0 S 0.83 8.0 SSE 52.8 54.1 53.0 50.3 29.988 0.00 0.00 0 0.00 0 0.0 0.00 0.0 0.077 0.000 71.8 50 52.2 70.8 9.25 .0739 0.000 203 7 100.0 10
5/05/26 4:50a 53.7 54.0 53.7 96 52.6 5.0 S 0.83 8.0 SSE 52.5 54.0 52.8 50.1 29.989 0.00 0.00 0 0.00 0 0.0 0.00 0.0 0.078 0.000 71.8 50 52.2 70.8 9.25 .0739 0.000 202 7 100.0 10
5/05/26 5:00a 53.6 53.7 53.6 96 52.5 3.0 S 0.50 7.0 SSE 53.6 53.9 53.9 51.2 29.988 0.00 0.00 0 0.00 0 0.0 0.00 0.0 0.079 0.000 71.8 50 52.2 70.8 9.25 .0739 0.000 203 7 100.0 10
5/05/26 5:10a 53.6 53.6 53.5 96 52.5 3.0 S 0.50 5.0 S 53.6 53.9 53.9 51.2 29.991 0.00 0.00 0 0.00 0 0.0 0.00 0.0 0.079 0.000 71.8 50 52.2 70.8 9.25 .0739 0.000 203 7 100.0 10
5/05/26 5:20a 53.6 53.7 53.5 96 52.5 2.0 S 0.33 5.0 S 53.6 53.9 53.9 51.2 29.992 0.00 0.00 0 0.00 0 0.0 0.00 0.0 0.079 0.000 71.8 50 52.2 70.8 9.25 .0739 0.000 204 7 100.0 10
5/05/26 5:30a 53.6 53.7 53.5 96 52.5 2.0 S 0.33 5.0 SSE 53.6 53.9 53.9 51.2 29.993 0.00 0.00 0 0.00 0 0.0 0.00 0.0 0.079 0.000 71.8 50 52.2 70.8 9.25 .0739 0.000 203 7 100.0 10
5/05/26 5:40a 53.7 53.8 53.6 96 52.6 2.0 S 0.33 5.0 SE 53.7 54.0 54.0 51.3 29.993 0.00 0.00 0 0.00 0 0.0 0.00 0.0 0.078 0.000 71.7 50 52.1 70.6 9.25 .0739 0.000 200 7 100.0 10
5/05/26 5:50a 53.8 53.8 53.7 95 52.4 3.0 S 0.50 6.0 S 53.8 54.0 54.0 51.3 29.993 0.00 0.00 0 0.00 0 0.0 0.00 0.0 0.078 0.000 71.7 50 52.1 70.6 9.25 .0739 0.000 205 7 100.0 10
5/05/26 6:00a 54.0 54.0 53.8 96 52.9 3.0 S 0.50 5.0 S 54.0 54.2 54.2 51.5 29.994 0.00 0.00 0 0.00 0 0.0 0.00 0.0 0.076 0.000 71.7 50 52.1 70.6 9.25 .0739 0.000 204 7 100.0 10
5/05/26 6:10a 53.9 54.0 53.9 95 52.5 3.0 S 0.50 6.0 SSE 53.9 54.1 54.1 51.4 29.992 0.00 0.00 1 0.01 5 0.0 0.00 0.0 0.077 0.000 71.7 50 52.1 70.6 9.25 .0739 0.000 204 7 100.0 10
5/05/26 6:20a 53.9 54.0 53.9 95 52.5 2.0 S 0.33 5.0 S 53.9 54.1 54.1 51.5 29.994 0.00 0.00 6 0.09 9 0.0 0.00 0.0 0.077 0.000 71.7 50 52.1 70.6 9.25 .0739 0.000 202 7 100.0 10
5/05/26 6:30a 54.0 54.0 53.9 95 52.6 1.0 S 0.17 4.0 S 54.0 54.2 54.2 51.7 29.998 0.00 0.00 11 0.16 14 0.0 0.00 0.0 0.076 0.000 71.7 50 52.1 70.6 9.25 .0739 0.000 204 7 100.0 10
5/05/26 6:40a 53.9 54.0 53.9 95 52.5 1.0 S 0.17 4.0 S 53.9 54.1 54.1 51.7 29.999 0.00 0.00 16 0.23 18 0.0 0.00 0.0 0.077 0.000 71.6 50 52.0 70.5 9.25 .0739 0.000 201 7 100.0 10
5/05/26 6:50a 54.0 54.1 53.9 95 52.6 2.0 S 0.33 4.0 S 54.0 54.2 54.2 52.0 30.002 0.00 0.00 24 0.34 28 0.0 0.00 0.0 0.076 0.000 71.7 50 52.1 70.6 9.25 .0739 0.000 203 7 100.0 10
5/05/26 7:00a 54.1 54.1 54.0 95 52.7 3.0 S 0.50 5.0 SSE 54.1 54.3 54.3 52.2 30.004 0.00 0.00 30 0.43 30 0.0 0.00 0.0 0.076 0.000 71.7 50 52.1 70.6 9.25 .0739 0.000 201 7 100.0 10
5/05/26 7:10a 54.2 54.2 54.1 94 52.5 2.0 SSE 0.33 6.0 ESE 54.2 54.4 54.4 52.3 30.009 0.00 0.00 29 0.42 30 0.0 0.00 0.0 0.075 0.000 71.8 50 52.2 70.8 9.25 .0739 0.000 200 7 100.0 10
5/05/26 7:20a 54.3 54.4 54.1 95 52.9 4.0 S 0.67 6.0 SSE 53.8 54.5 54.0 51.9 30.014 0.00 0.00 31 0.44 32 0.0 0.00 0.0 0.074 0.000 71.9 50 52.2 70.9 9.25 .0739 0.000 204 7 100.0 10
5/05/26 7:30a 54.2 54.3 54.1 94 52.5 3.0 S 0.50 5.0 SSE 54.2 54.4 54.4 52.5 30.018 0.00 0.00 37 0.53 46 0.0 0.00 0.0 0.075 0.000 72.0 50 52.3 71.1 9.25 .0739 0.000 203 7 100.0 10
5/05/26 7:40a 54.3 54.3 54.1 94 52.6 3.0 S 0.50 6.0 SSE 54.3 54.5 54.5 54.8 30.017 0.00 0.00 48 0.69 58 0.0 0.00 0.0 0.074 0.000 72.0 50 52.3 71.1 9.25 .0739 0.000 203 7 100.0 10
5/05/26 7:50a 54.0 54.2 53.9 95 52.6 5.0 S 0.83 10.0 SSE 52.9 54.2 53.1 52.6 30.020 0.00 0.00 30 0.43 33 0.0 0.00 0.0 0.076 0.000 72.0 50 52.3 71.1 9.25 .0739 0.000 204 7 100.0 10
5/05/26 8:00a 53.6 53.9 53.6 95 52.2 4.0 SSW 0.67 7.0 SSE 53.0 53.8 53.2 53.3 30.021 0.00 0.00 42 0.60 54 0.0 0.00 0.0 0.079 0.000 72.1 50 52.4 71.2 9.25 .0739 0.001 199 7 100.0 10
5/05/26 8:10a 53.5 53.7 53.5 95 52.1 5.0 SSW 0.83 7.0 SSE 52.3 53.8 52.6 53.5 30.021 0.00 0.00 62 0.89 77 0.0 0.00 0.0 0.080 0.000 72.1 50 52.4 71.2 9.25 .0739 0.000 200 7 100.0 10
5/05/26 8:20a 53.5 53.5 53.5 95 52.1 4.0 SSW 0.67 7.0 SSE 52.9 53.8 53.2 55.2 30.022 0.00 0.00 92 1.32 100 0.0 0.00 0.0 0.080 0.000 72.1 50 52.4 71.2 9.25 .0739 0.000 202 7 100.0 10
5/05/26 8:30a 53.6 53.6 53.5 96 52.5 4.0 SSE 0.67 6.0 ESE 53.0 53.9 53.3 55.7 30.024 0.00 0.00 104 1.49 107 0.3 0.02 0.5 0.079 0.000 72.2 50 52.5 71.4 9.25 .0739 0.000 204 7 100.0 10
5/05/26 8:40a 53.6 53.7 53.5 96 52.5 4.0 S 0.67 8.0 SSE 53.0 53.9 53.3 55.8 30.025 0.00 0.00 110 1.58 113 0.5 0.04 0.5 0.079 0.000 72.2 50 52.5 71.4 9.25 .0739 0.000 201 7 100.0 10
5/05/26 8:50a 53.5 53.7 53.5 96 52.4 5.0 SSW 0.83 9.0 SSE 52.3 53.8 52.6 55.4 30.024 0.00 0.00 123 1.76 139 0.6 0.04 0.7 0.080 0.000 72.2 50 52.5 71.4 9.25 .0739 0.000 203 7 100.0 10
5/05/26 9:00a 53.6 53.7 53.5 96 52.5 6.0 SSW 1.00 10.0 SSE 51.9 53.9 52.2 55.6 30.025 0.00 0.00 143 2.05 146 0.7 0.05 0.7 0.079 0.000 72.3 50 52.6 71.5 9.25 .0739 0.002 201 7 100.0 10
5/05/26 9:10a 53.6 53.7 53.5 96 52.5 5.0 SSW 0.83 10.0 SSE 52.4 53.9 52.7 55.6 30.024 0.00 0.00 134 1.92 144 0.7 0.05 0.7 0.079 0.000 72.3 50 52.6 71.5 9.25 .0739 0.000 201 7 100.0 10
5/05/26 9:20a 53.6 53.7 53.5 96 52.5 5.0 SSW 0.83 8.0 SSW 52.4 53.9 52.7 55.7 30.022 0.00 0.00 142 2.04 158 0.8 0.06 0.9 0.079 0.000 72.3 50 52.6 71.5 9.25 .0739 0.000 201 7 100.0 10
5/05/26 9:30a 53.7 53.7 53.6 96 52.6 4.0 SSW 0.67 6.0 SSW 53.1 54.0 53.4 57.0 30.022 0.00 0.00 166 2.38 169 1.0 0.07 1.0 0.078 0.000 72.4 50 52.7 71.7 9.25 .0738 0.000 203 7 100.0 10
5/05/26 9:40a 53.8 53.8 53.7 96 52.7 3.0 S 0.50 6.0 SSE 53.8 54.1 54.1 57.9 30.026 0.00 0.00 177 2.54 181 1.1 0.08 1.1 0.078 0.000 72.5 50 52.8 71.8 9.25 .0738 0.000 202 7 100.0 10
5/05/26 9:50a 53.9 53.9 53.8 96 52.8 4.0 SSW 0.67 6.0 SSE 53.4 54.1 53.6 57.8 30.026 0.00 0.00 195 2.80 207 1.3 0.09 1.3 0.077 0.000 72.5 50 52.8 71.8 9.25 .0738 0.000 202 7 100.0 10
5/05/26 10:00a 54.1 54.1 53.9 96 53.0 3.0 SSW 0.50 5.0 SSE 54.1 54.3 54.3 58.9 30.028 0.00 0.00 217 3.11 234 1.4 0.10 1.5 0.076 0.000 72.5 50 52.8 71.8 9.25 .0738 0.003 201 7 100.0 10
5/05/26 10:10a 54.0 54.1 54.0 96 52.9 4.0 SSW 0.67 7.0 SE 53.5 54.2 53.7 58.8 30.029 0.00 0.00 239 3.43 248 1.6 0.11 1.6 0.076 0.000 72.5 50 52.8 71.8 9.25 .0738 0.000 200 7 100.0 10
5/05/26 10:20a 54.1 54.2 54.0 96 53.0 3.0 S 0.50 6.0 S 54.1 54.3 54.3 59.0 30.031 0.00 0.00 234 3.35 237 1.6 0.11 1.6 0.076 0.000 72.5 50 52.8 71.8 9.25 .0738 0.000 204 7 100.0 10
5/05/26 10:30a 54.2 54.2 54.1 97 53.4 3.0 S 0.50 6.0 SSE 54.2 54.5 54.5 58.9 30.033 0.00 0.00 225 3.23 230 1.6 0.11 1.6 0.075 0.000 72.5 50 52.8 71.8 9.25 .0739 0.000 203 7 100.0 10
5/05/26 10:40a 54.2 54.3 54.2 97 53.4 3.0 SSW 0.50 6.0 SSE 54.2 54.5 54.5 58.7 30.036 0.00 0.00 220 3.15 225 1.6 0.11 1.6 0.075 0.000 72.6 50 52.9 71.9 9.25 .0738 0.000 201 7 100.0 10
5/05/26 10:50a 54.2 54.3 54.2 96 53.1 4.0 S 0.67 8.0 SE 53.7 54.4 53.9 57.9 30.037 0.00 0.00 218 3.13 225 1.6 0.11 1.7 0.075 0.000 72.6 50 52.9 71.9 9.25 .0738 0.000 203 7 100.0 10
5/05/26 11:00a 54.1 54.2 54.0 96 53.0 5.0 S 0.83 9.0 SSE 53.0 54.3 53.2 57.4 30.037 0.00 0.00 231 3.31 239 1.7 0.12 1.8 0.076 0.000 72.7 50 53.0 72.1 9.25 .0738 0.004 205 7 100.0 10
5/05/26 11:10a 54.1 54.2 54.1 96 53.0 6.0 S 1.00 9.0 SSE 52.5 54.3 52.7 57.2 30.038 0.00 0.00 248 3.56 255 1.9 0.14 2.0 0.076 0.000 72.7 50 53.0 72.1 9.25 .0738 0.000 203 7 100.0 10
5/05/26 11:20a 54.3 54.3 54.1 96 53.2 6.0 S 1.00 9.0 S 52.8 54.5 53.0 58.3 30.038 0.00 0.00 280 4.01 299 2.2 0.16 2.3 0.074 0.000 72.7 50 53.0 72.1 9.25 .0738 0.000 200 7 100.0 10
5/05/26 11:30a 54.2 54.3 54.2 96 53.1 6.0 S 1.00 10.0 SSW 52.6 54.4 52.8 58.3 30.041 0.00 0.00 291 4.17 301 2.3 0.16 2.3 0.075 0.000 72.7 50 53.0 72.1 9.25 .0738 0.000 203 7 100.0 10
5/05/26 11:40a 54.3 54.3 54.2 96 53.2 5.0 SSW 0.83 8.0 SE 53.3 54.5 53.5 58.7 30.045 0.00 0.00 281 4.03 290 2.2 0.16 2.3 0.074 0.000 72.8 50 53.1 72.2 9.25 .0738 0.000 203 7 100.0 10
5/05/26 11:50a 54.4 54.4 54.3 96 53.3 5.0 S 0.83 8.0 SE 53.4 54.6 53.6 59.2 30.045 0.00 0.00 305 4.37 322 2.5 0.18 2.6 0.074 0.000 72.9 50 53.2 72.4 9.25 .0738 0.000 203 7 100.0 10
5/05/26 12:00p 54.3 54.4 54.3 96 53.2 5.0 S 0.83 8.0 ESE 53.3 54.5 53.5 60.6 30.045 0.00 0.00 383 5.49 436 3.1 0.22 3.5 0.074 0.000 72.9 50 53.2 72.4 9.25 .0738 0.006 204 7 100.0 10
5/05/26 12:10p 54.4 54.4 54.3 96 53.3 6.0 SSW 1.00 9.0 SSE 52.9 54.6 53.1 61.4 30.045 0.00 0.00 453 6.49 462 3.6 0.26 3.7 0.074 0.000 72.9 50 53.2 72.4 9.25 .0738 0.000 202 7 100.0 10
5/05/26 12:20p 54.5 54.5 54.4 96 53.4 5.0 S 0.83 8.0 SE 53.5 54.7 53.7 62.0 30.045 0.00 0.00 458 6.57 466 3.7 0.26 3.8 0.073 0.000 73.0 50 53.3 72.5 9.25 .0738 0.000 203 7 100.0 10
5/05/26 12:30p 54.6 54.6 54.5 96 53.5 5.0 S 0.83 7.0 SSE 53.6 54.8 53.8 61.2 30.048 0.00 0.00 403 5.78 425 3.3 0.24 3.5 0.072 0.000 73.1 50 53.4 72.6 9.25 .0738 0.000 203 7 100.0 10
5/05/26 12:40p 54.7 54.7 54.5 96 53.6 4.0 SSW 0.67 7.0 S 54.3 54.9 54.5 61.6 30.050 0.00 0.00 388 5.56 404 3.2 0.23 3.3 0.072 0.000 73.1 50 53.4 72.6 9.25 .0738 0.000 204 7 100.0 10
5/05/26 12:50p 54.8 54.8 54.6 96 53.7 4.0 SSW 0.67 6.0 SSE 54.4 55.0 54.6 62.0 30.054 0.00 0.00 405 5.81 410 3.4 0.24 3.4 0.071 0.000 73.1 50 53.4 72.6 9.25 .0738 0.000 204 7 100.0 10
5/05/26 1:00p 55.0 55.1 54.8 96 53.9 3.0 SW 0.50 5.0 SW 55.0 55.2 55.2 62.2 30.058 0.00 0.00 386 5.53 408 3.3 0.24 3.4 0.069 0.000 73.2 50 53.4 72.7 9.25 .0738 0.008 205 7 100.0 10
5/05/26 1:10p 55.1 55.1 55.0 96 54.0 2.0 SSW 0.33 4.0 SSE 55.1 55.3 55.3 62.0 30.057 0.00 0.00 371 5.32 378 3.1 0.22 3.2 0.069 0.000 73.2 50 53.4 72.7 9.25 .0738 0.000 203 7 100.0 10
5/05/26 1:20p 55.2 55.3 55.1 96 54.1 2.0 S 0.33 4.0 S 55.2 55.4 55.4 61.7 30.055 0.00 0.00 348 4.99 362 3.0 0.21 3.1 0.068 0.000 73.3 50 53.5 72.9 9.25 .0738 0.000 204 7 100.0 10
5/05/26 1:30p 55.2 55.3 55.1 96 54.1 2.0 S 0.33 5.0 S 55.2 55.4 55.4 62.3 30.055 0.00 0.00 381 5.46 392 3.2 0.23 3.3 0.068 0.000 73.3 50 53.5 72.9 9.25 .0738 0.000 204 7 100.0 10
5/05/26 1:40p 55.0 55.4 54.9 95 53.6 3.0 S 0.50 5.0 S 55.0 55.2 55.2 63.0 30.054 0.00 0.00 432 6.19 468 3.6 0.26 3.9 0.069 0.000 73.4 50 53.6 73.0 9.25 .0737 0.000 201 7 100.0 10
5/05/26 1:50p 55.1 55.2 54.8 95 53.7 3.0 WSW 0.50 4.0 WSW 55.1 55.3 55.3 64.9 30.048 0.00 0.00 552 7.91 626 4.4 0.31 4.7 0.069 0.000 73.4 50 53.6 73.0 9.25 .0737 0.000 204 7 100.0 10
5/05/26 2:00p 55.4 55.5 55.1 96 54.3 3.0 WSW 0.50 4.0 WSW 55.4 55.6 55.6 66.6 30.047 0.00 0.00 704 10.09 863 5.6 0.40 6.5 0.067 0.000 73.5 50 53.7 73.1 9.25 .0737 0.009 202 7 100.0 10
5/05/26 2:10p 55.7 55.8 55.4 95 54.3 3.0 WSW 0.50 4.0 WSW 55.7 55.9 55.9 66.9 30.049 0.00 0.00 705 10.11 817 5.7 0.41 6.1 0.065 0.000 73.5 50 53.7 73.1 9.25 .0737 0.000 205 7 100.0 10
5/05/26 2:20p 55.4 55.7 55.4 95 54.0 3.0 W 0.50 4.0 W 55.4 55.6 55.6 65.7 30.051 0.00 0.00 580 8.31 635 4.7 0.34 5.1 0.067 0.000 73.6 50 53.8 73.2 9.25 .0737 0.000 202 7 100.0 10
5/05/26 2:30p 55.9 55.9 55.4 95 54.5 3.0 W 0.50 4.0 W 55.9 56.1 56.1 66.1 30.052 0.00 0.00 565 8.10 575 4.6 0.33 4.6 0.063 0.000 73.7 50 53.9 73.3 9.25 .0737 0.000 203 7 100.0 10
5/05/26 2:40p 56.7 56.7 55.9 95 55.3 3.0 NW 0.50 5.0 NW 56.7 56.9 56.9 66.6 30.051 0.00 0.00 539 7.73 555 4.3 0.31 4.4 0.058 0.000 73.8 50 54.0 73.5 9.25 .0737 0.000 204 7 100.0 10
5/05/26 2:50p 56.9 56.9 56.7 95 55.5 3.0 NW 0.50 5.0 NW 56.9 57.1 57.1 66.7 30.051 0.00 0.00 523 7.50 534 4.1 0.29 4.2 0.056 0.000 73.8 50 54.0 73.5 9.25 .0737 0.000 204 7 100.0 10
5/05/26 3:00p 57.1 57.1 56.6 95 55.7 3.0 NW 0.50 4.0 NW 57.1 57.3 57.3 67.3 30.046 0.00 0.00 551 7.90 568 4.2 0.30 4.2 0.055 0.000 73.9 50 54.1 73.6 9.25 .0736 0.011 202 7 100.0 10
5/05/26 3:10p 57.6 57.6 56.9 94 55.9 3.0 NNW 0.50 5.0 NNW 57.6 57.8 57.8 68.2 30.043 0.00 0.00 576 8.26 585 4.2 0.30 4.2 0.051 0.000 73.9 50 54.1 73.6 9.25 .0736 0.000 201 7 100.0 10
5/05/26 3:20p 57.4 57.7 57.4 93 55.4 4.0 NNW 0.67 5.0 NNE 57.4 57.6 57.6 68.3 30.041 0.00 0.00 604 8.66 617 4.2 0.30 4.2 0.053 0.000 74.0 50 54.2 73.7 9.25 .0736 0.000 204 7 100.0 10
5/05/26 3:30p 57.8 57.8 57.4 94 56.1 4.0 NNW 0.67 6.0 NNW 57.8 58.0 58.0 68.6 30.040 0.00 0.00 572 8.20 591 3.9 0.28 4.1 0.050 0.000 74.1 50 54.3 73.8 9.25 .0736 0.000 204 7 100.0 10
5/05/26 3:40p 58.0 58.2 57.9 93 56.0 4.0 N 0.67 6.0 NNW 58.0 58.2 58.2 68.5 30.041 0.00 0.00 544 7.80 577 3.5 0.25 3.7 0.049 0.000 74.3 50 54.5 74.1 9.25 .0736 0.000 204 7 100.0 10
5/05/26 3:50p 58.1 58.1 57.8 92 55.8 4.0 NNW 0.67 6.0 NNW 58.1 58.3 58.3 68.0 30.042 0.00 0.00 484 6.94 499 3.1 0.22 3.2 0.048 0.000 74.4 50 54.5 74.3 9.25 .0735 0.000 203 7 100.0 10
5/05/26 4:00p 57.8 58.0 57.7 92 55.5 4.0 NNW 0.67 5.0 NNW 57.8 58.0 58.0 67.7 30.038 0.00 0.00 479 6.87 483 3.0 0.21 3.0 0.050 0.000 74.6 50 54.7 74.5 9.25 .0735 0.011 203 7 100.0 10
5/05/26 4:10p 58.0 58.1 57.8 92 55.7 4.0 N 0.67 7.0 NNE 58.0 58.2 58.2 67.9 30.037 0.00 0.00 468 6.71 476 2.8 0.20 2.9 0.049 0.000 74.7 50 54.8 74.7 9.25 .0735 0.000 203 7 100.0 10
5/05/26 4:20p 58.2 58.3 57.9 91 55.6 4.0 NNW 0.67 7.0 NNE 58.2 58.4 58.4 67.7 30.037 0.00 0.00 432 6.19 450 2.5 0.18 2.7 0.047 0.000 74.7 50 54.8 74.7 9.25 .0735 0.000 203 7 100.0 10
5/05/26 4:30p 58.4 58.4 58.2 91 55.8 4.0 N 0.67 7.0 NNE 58.4 58.6 58.6 67.4 30.035 0.00 0.00 395 5.66 403 2.3 0.16 2.4 0.046 0.000 74.8 50 54.9 74.8 9.25 .0735 0.000 204 7 100.0 10
5/05/26 4:40p 58.3 58.4 58.2 90 55.4 5.0 N 0.83 8.0 N 58.0 58.4 58.1 67.0 30.036 0.00 0.00 386 5.53 399 2.1 0.15 2.2 0.047 0.000 74.8 50 54.9 74.8 9.25 .0735 0.000 205 7 100.0 10
5/05/26 4:50p 58.0 58.6 58.0 89 54.8 4.0 N 0.67 8.0 N 58.0 58.1 58.1 66.2 30.037 0.00 0.00 342 4.90 353 1.8 0.13 1.9 0.049 0.000 74.7 50 54.8 74.7 9.25 .0735 0.000 203 7 100.0 10
5/05/26 5:00p 57.3 58.1 57.3 90 54.4 5.0 N 0.83 9.0 N 56.8 57.4 56.9 64.3 30.038 0.00 0.00 300 4.30 320 1.5 0.11 1.7 0.053 0.000 74.7 50 54.8 74.7 9.25 .0735 0.008 204 7 100.0 10
5/05/26 5:10p 57.3 57.4 57.3 90 54.4 4.0 N 0.67 8.0 N 57.3 57.4 57.4 64.4 30.036 0.00 0.00 278 3.99 281 1.4 0.10 1.4 0.053 0.000 74.7 50 54.8 74.7 9.25 .0735 0.000 202 7 100.0 10
5/05/26 5:20p 57.0 57.5 57.0 90 54.1 5.0 N 0.83 8.0 N 56.4 57.1 56.5 63.5 30.034 0.00 0.00 267 3.83 271 1.3 0.09 1.3 0.056 0.000 74.8 50 54.9 74.8 9.25 .0735 0.000 201 7 100.0 10
5/05/26 5:30p 57.0 57.1 56.9 90 54.1 5.0 N 0.83 8.0 NNW 56.4 57.1 56.5 63.3 30.033 0.00 0.00 251 3.60 258 1.1 0.08 1.2 0.056 0.000 74.9 51 55.6 75.0 9.35 .0734 0.000 203 7 100.0 10
5/05/26 5:40p 57.1 57.1 56.9 90 54.2 4.0 N 0.67 7.0 NNE 57.1 57.2 57.2 63.4 30.035 0.00 0.00 223 3.20 237 1.0 0.07 1.1 0.055 0.000 74.9 51 55.6 75.0 9.35 .0734 0.000 202 7 100.0 10
5/05/26 5:50p 56.9 57.1 56.8 90 54.0 4.0 N 0.67 8.0 N 56.9 57.0 57.0 62.5 30.035 0.00 0.00 196 2.81 202 0.8 0.06 0.9 0.056 0.000 74.9 51 55.6 75.0 9.35 .0734 0.000 204 7 100.0 10
5/05/26 6:00p 57.0 57.0 56.9 90 54.1 4.0 N 0.67 8.0 NNE 57.0 57.1 57.1 62.4 30.034 0.00 0.00 184 2.64 190 0.7 0.05 0.7 0.056 0.000 75.0 51 55.6 75.2 9.35 .0734 0.005 205 7 100.0 10
5/05/26 6:10p 56.9 57.0 56.9 90 54.0 4.0 NNE 0.67 7.0 NNE 56.9 57.0 57.0 61.9 30.034 0.00 0.00 172 2.47 181 0.6 0.04 0.7 0.056 0.000 75.0 51 55.6 75.2 9.35 .0734 0.000 204 7 100.0 10
5/05/26 6:20p 56.9 57.0 56.7 91 54.3 4.0 NE 0.67 7.0 NNE 56.9 57.0 57.0 61.5 30.031 0.00 0.00 156 2.24 163 0.5 0.04 0.6 0.056 0.000 75.1 51 55.7 75.3 9.35 .0734 0.000 203 7 100.0 10
5/05/26 6:30p 56.8 56.9 56.6 91 54.2 4.0 N 0.67 7.0 NNE 56.8 56.9 56.9 61.0 30.032 0.00 0.00 144 2.06 148 0.4 0.03 0.5 0.057 0.000 75.1 51 55.7 75.3 9.35 .0734 0.000 201 7 100.0 10
5/05/26 6:40p 56.6 56.8 56.6 90 53.7 4.0 N 0.67 7.0 NNE 56.5 56.7 56.6 60.0 30.035 0.00 0.00 126 1.81 135 0.0 0.00 0.0 0.058 0.000 75.1 51 55.7 75.3 9.35 .0734 0.000 204 7 100.0 10
5/05/26 6:50p 56.4 56.6 56.3 91 53.8 4.0 N 0.67 8.0 N 56.3 56.5 56.4 59.0 30.035 0.00 0.00 108 1.55 114 0.0 0.00 0.0 0.060 0.000 75.1 51 55.7 75.3 9.35 .0734 0.000 202 7 100.0 10
5/05/26 7:00p 56.3 56.4 56.2 91 53.7 4.0 N 0.67 7.0 N 56.2 56.4 56.3 55.8 30.034 0.00 0.00 104 1.49 107 0.0 0.00 0.0 0.060 0.000 75.0 51 55.6 75.2 9.35 .0734 0.003 201 7 100.0 10
5/05/26 7:10p 56.3 56.4 56.3 91 53.7 4.0 NNE 0.67 8.0 NNE 56.2 56.4 56.3 55.3 30.032 0.00 0.00 85 1.22 93 0.0 0.00 0.0 0.060 0.000 75.0 51 55.6 75.2 9.35 .0734 0.000 202 7 100.0 10
5/05/26 7:20p 56.4 56.4 56.2 91 53.8 3.0 NNE 0.50 8.0 NNE 56.4 56.5 56.5 55.2 30.032 0.00 0.00 68 0.97 77 0.0 0.00 0.0 0.060 0.000 75.0 51 55.6 75.2 9.35 .0734 0.000 204 7 100.0 10
5/05/26 7:30p 56.2 56.4 56.2 91 53.6 3.0 NNE 0.50 7.0 NNE 56.2 56.3 56.3 54.5 30.034 0.00 0.00 46 0.66 51 0.0 0.00 0.0 0.061 0.000 74.9 51 55.6 75.0 9.35 .0734 0.000 204 7 100.0 10
5/05/26 7:40p 56.2 56.2 56.1 91 53.6 3.0 NNE 0.50 8.0 N 56.2 56.3 56.3 54.2 30.036 0.00 0.00 33 0.47 39 0.0 0.00 0.0 0.061 0.000 74.9 51 55.6 75.0 9.35 .0734 0.000 202 7 100.0 10
5/05/26 7:50p 56.0 56.1 55.9 91 53.4 4.0 NNE 0.67 8.0 N 55.8 56.1 55.9 53.6 30.038 0.00 0.00 23 0.33 26 0.0 0.00 0.0 0.063 0.000 74.9 51 55.6 75.0 9.35 .0734 0.000 203 7 100.0 10
5/05/26 8:00p 55.9 56.0 55.9 91 53.3 3.0 NNE 0.50 7.0 NNE 55.9 56.0 56.0 53.6 30.037 0.00 0.00 17 0.24 21 0.0 0.00 0.0 0.063 0.000 74.8 51 55.5 74.9 9.35 .0734 0.001 205 7 100.0 10
5/05/26 8:10p 55.8 55.9 55.8 91 53.2 3.0 NE 0.50 6.0 ENE 55.8 55.9 55.9 53.3 30.038 0.00 0.00 10 0.14 12 0.0 0.00 0.0 0.064 0.000 74.8 51 55.5 74.9 9.35 .0734 0.000 203 7 100.0 10
5/05/26 8:20p 55.8 55.8 55.7 91 53.2 3.0 NE 0.50 7.0 N 55.8 55.9 55.9 53.2 30.042 0.00 0.00 5 0.07 7 0.0 0.00 0.0 0.064 0.000 74.8 51 55.5 74.9 9.35 .0735 0.000 201 7 100.0 10
5/05/26 8:30p 55.7 55.8 55.6 90 52.8 3.0 NE 0.50 6.0 NE 55.7 55.8 55.8 52.9 30.043 0.00 0.00 0 0.00 0 0.0 0.00 0.0 0.065 0.000 74.7 51 55.4 74.8 9.36 .0735 0.000 202 7 100.0 10
5/05/26 8:40p 55.7 55.7 55.6 90 52.8 3.0 NE 0.50 5.0 ENE 55.7 55.8 55.8 52.9 30.045 0.00 0.00 0 0.00 0 0.0 0.00 0.0 0.065 0.000 74.7 51 55.4 74.8 9.36 .0735 0.000 202 7 100.0 10
5/05/26 8:50p 55.7 55.7 55.6 90 52.8 3.0 NE 0.50 6.0 NE 55.7 55.8 55.8 52.9 30.049 0.00 0.00 0 0.00 0 0.0 0.00 0.0 0.065 0.000 74.6 51 55.3 74.6 9.36 .0735 0.000 203 7 100.0 10
5/05/26 9:00p 55.7 55.7 55.6 90 52.8 3.0 NE 0.50 6.0 NE 55.7 55.8 55.8 52.9 30.051 0.00 0.00 0 0.00 0 0.0 0.00 0.0 0.065 0.000 74.6 51 55.3 74.6 9.36 .0735 0.000 202 7 100.0 10
5/05/26 9:10p 55.7 55.7 55.6 90 52.8 1.0 NE 0.17 3.0 NE 55.7 55.8 55.8 52.9 30.056 0.00 0.00 0 0.00 0 0.0 0.00 0.0 0.065 0.000 74.6 51 55.3 74.6 9.36 .0735 0.000 203 7 100.0 10
5/05/26 9:20p 55.6 55.7 55.5 90 52.7 1.0 NE 0.17 3.0 NE 55.6 55.7 55.7 52.8 30.059 0.00 0.00 0 0.00 0 0.0 0.00 0.0 0.065 0.000 74.5 51 55.2 74.5 9.36 .0735 0.000 201 7 100.0 10
5/05/26 9:30p 55.5 55.6 55.5 90 52.6 1.0 NE 0.17 3.0 NE 55.5 55.6 55.6 52.7 30.065 0.00 0.00 0 0.00 0 0.0 0.00 0.0 0.066 0.000 74.5 51 55.2 74.5 9.36 .0736 0.000 200 7 100.0 10
5/05/26 9:40p 55.5 55.6 55.4 90 52.6 2.0 NE 0.33 4.0 NE 55.5 55.6 55.6 52.7 30.068 0.00 0.00 0 0.00 0 0.0 0.00 0.0 0.066 0.000 74.4 51 55.1 74.4 9.36 .0736 0.000 204 7 100.0 10
5/05/26 9:50p 55.5 55.5 55.4 90 52.6 1.0 NE 0.17 4.0 NE 55.5 55.6 55.6 52.7 30.069 0.00 0.00 0 0.00 0 0.0 0.00 0.0 0.066 0.000 74.4 51 55.1 74.4 9.36 .0736 0.000 203 7 100.0 10
5/05/26 10:00p 55.4 55.6 55.4 90 52.5 1.0 NE 0.17 3.0 NE 55.4 55.5 55.5 52.6 30.073 0.00 0.00 0 0.00 0 0.0 0.00 0.0 0.067 0.000 74.4 51 55.1 74.4 9.36 .0736 0.000 204 7 100.0 10
5/05/26 10:10p 55.4 55.4 55.3 90 52.5 1.0 NE 0.17 4.0 NE 55.4 55.5 55.5 52.6 30.074 0.00 0.00 0 0.00 0 0.0 0.00 0.0 0.067 0.000 74.3 51 55.0 74.2 9.36 .0736 0.000 203 7 100.0 10
5/05/26 10:20p 55.3 55.4 55.3 90 52.4 2.0 NE 0.33 4.0 NE 55.3 55.4 55.4 52.5 30.073 0.00 0.00 0 0.00 0 0.0 0.00 0.0 0.067 0.000 74.3 51 55.0 74.2 9.36 .0736 0.000 203 7 100.0 10
5/05/26 10:30p 55.2 55.3 55.1 90 52.3 2.0 NE 0.33 4.0 NE 55.2 55.3 55.3 52.4 30.079 0.00 0.00 0 0.00 0 0.0 0.00 0.0 0.068 0.000 74.2 51 54.9 74.1 9.37 .0736 0.000 204 7 100.0 10
5/05/26 10:40p 55.2 55.3 55.1 90 52.3 1.0 NE 0.17 2.0 NE 55.2 55.3 55.3 52.4 30.078 0.00 0.00 0 0.00 0 0.0 0.00 0.0 0.068 0.000 74.2 51 54.9 74.1 9.37 .0736 0.000 203 7 100.0 10
5/05/26 10:50p 55.4 55.4 55.2 90 52.5 1.0 NE 0.17 2.0 NE 55.4 55.5 55.5 52.6 30.079 0.00 0.00 0 0.00 0 0.0 0.00 0.0 0.067 0.000 74.2 51 54.9 74.1 9.37 .0736 0.000 203 7 100.0 10
5/05/26 11:00p 55.3 55.4 55.3 90 52.4 0.0 NE 0.00 2.0 NE 55.3 55.4 55.4 52.5 30.079 0.00 0.00 0 0.00 0 0.0 0.00 0.0 0.067 0.000 74.1 51 54.8 73.9 9.37 .0737 0.000 203 7 100.0 10
5/05/26 11:10p 55.2 55.3 55.2 90 52.3 1.0 NE 0.17 2.0 NE 55.2 55.3 55.3 52.4 30.079 0.00 0.00 0 0.00 0 0.0 0.00 0.0 0.068 0.000 74.1 51 54.8 73.9 9.37 .0737 0.000 204 7 100.0 10
5/05/26 11:20p 55.3 55.3 55.2 90 52.4 1.0 NE 0.17 2.0 NE 55.3 55.4 55.4 52.5 30.081 0.00 0.00 0 0.00 0 0.0 0.00 0.0 0.067 0.000 74.1 51 54.8 73.9 9.37 .0737 0.000 203 7 100.0 10
5/05/26 11:30p 55.2 55.3 55.1 90 52.3 1.0 NE 0.17 4.0 NE 55.2 55.3 55.3 52.4 30.080 0.00 0.00 0 0.00 0 0.0 0.00 0.0 0.068 0.000 74.0 51 54.7 73.8 9.37 .0737 0.000 204 7 100.0 10
5/05/26 11:40p 55.1 55.2 55.1 90 52.2 0.0 ENE 0.00 2.0 ENE 55.1 55.2 55.2 52.3 30.080 0.00 0.00 0 0.00 0 0.0 0.00 0.0 0.069 0.000 74.0 51 54.7 73.8 9.37 .0737 0.000 204 7 100.0 10
5/05/26 11:50p 55.1 55.2 55.1 90 52.2 0.0 ENE 0.00 2.0 ENE 55.1 55.2 55.2 52.3 30.079 0.00 0.00 0 0.00 0 0.0 0.00 0.0 0.069 0.000 73.9 51 54.6 73.7 9.37 .0737 0.000 202 7 100.0 10
5/06/26 12:00a 55.0 55.2 55.0 90 52.1 1.0 ENE 0.17 4.0 ENE 55.0 55.1 55.1 52.2 30.080 0.00 0.00 0 0.00 0 0.0 0.00 0.0 0.069 0.000 73.9 51 54.6 73.7 9.37 .0737 0.000 203 7 100.0 10
5/06/26 12:10a 55.0 55.0 54.9 90 52.1 0.0 --- 0.00 0.0 --- 55.0 55.1 55.1 52.2 30.082 0.00 0.00 0 0.00 0 0.0 0.00 0.0 0.069 0.000 73.9 51 54.6 73.7 9.37 .0737 0.000 201 7 100.0 10
5/06/26 12:20a 55.1 55.1 54.9 90 52.2 0.0 --- 0.00 0.0 --- 55.1 55.2 55.2 52.3 30.086 0.00 0.00 0 0.00 0 0.0 0.00 0.0 0.069 0.000 73.9 51 54.6 73.7 9.37 .0737 0.000 205 7 100.0 10
5/06/26 12:30a 55.1 55.1 55.0 90 52.2 0.0 --- 0.00 0.0 --- 55.1 55.2 55.2 52.3 30.088 0.00 0.00 0 0.00 0 0.0 0.00 0.0 0.069 0.000 73.8 51 54.5 73.6 9.37 .0737 0.000 203 7 100.0 10
5/06/26 12:40a 55.0 55.1 55.0 90 52.1 0.0 --- 0.00 0.0 --- 55.0 55.1 55.1 52.2 30.091 0.00 0.00 0 0.00 0 0.0 0.00 0.0 0.069 0.000 73.8 51 54.5 73.6 9.37 .0737 0.000 202 7 100.0 10
5/06/26 12:50a 54.8 55.1 54.8 90 51.9 0.0 --- 0.00 0.0 --- 54.8 54.9 54.9 52.0 30.095 0.00 0.00 0 0.00 0 0.0 0.00 0.0 0.071 0.000 73.8 51 54.5 73.6 9.37 .0738 0.000 204 7 100.0 10
5/06/26 1:00a 54.8 54.9 54.8 90 51.9 0.0 --- 0.00 0.0 --- 54.8 54.9 54.9 52.0 30.099 0.00 0.00 0 0.00 0 0.0 0.00 0.0 0.071 0.000 73.7 51 54.4 73.4 9.38 .0738 0.000 202 7 100.0 10
5/06/26 1:10a 54.9 55.0 54.8 90 52.0 0.0 --- 0.00 0.0 --- 54.9 55.0 55.0 52.1 30.100 0.00 0.00 0 0.00 0 0.0 0.00 0.0 0.070 0.000 73.7 51 54.4 73.4 9.38 .0738 0.000 203 7 100.0 10
5/06/26 1:20a 54.8 55.0 54.8 90 51.9 0.0 --- 0.00 0.0 --- 54.8 54.9 54.9 52.0 30.102 0.00 0.00 0 0.00 0 0.0 0.00 0.0 0.071 0.000 73.6 51 54.4 73.3 9.38 .0738 0.000 203 7 100.0 10
5/06/26 1:30a 54.7 54.8 54.7 90 51.8 2.0 ENE 0.33 4.0 N 54.7 54.8 54.8 51.9 30.105 0.00 0.00 0 0.00 0 0.0 0.00 0.0 0.072 0.000 73.6 51 54.4 73.3 9.38 .0738 0.000 204 7 100.0 10